sensor_id;sensor_type;location;lat;lon;timestamp;P1;durP1;ratioP1;P2;durP2;ratioP2
6117;SDS011;3089;48.202;11.510;2022-11-20T00:01:03;3.87;;;1.53;;
6117;SDS011;3089;48.202;11.510;2022-11-20T00:03:31;4.00;;;1.80;;
6117;SDS011;3089;48.202;11.510;2022-11-20T00:05:59;3.50;;;1.43;;
6117;SDS011;3089;48.202;11.510;2022-11-20T00:08:28;4.83;;;1.77;;
6117;SDS011;3089;48.202;11.510;2022-11-20T00:10:57;4.20;;;1.43;;
6117;SDS011;3089;48.202;11.510;2022-11-20T00:13:29;3.93;;;1.80;;
6117;SDS011;3089;48.202;11.510;2022-11-20T00:15:57;5.83;;;1.80;;
6117;SDS011;3089;48.202;11.510;2022-11-20T00:18:26;5.20;;;1.50;;
6117;SDS011;3089;48.202;11.510;2022-11-20T00:20:59;3.60;;;1.40;;
6117;SDS011;3089;48.202;11.510;2022-11-20T00:23:28;3.13;;;1.20;;
6117;SDS011;3089;48.202;11.510;2022-11-20T00:26:00;3.90;;;1.80;;
6117;SDS011;3089;48.202;11.510;2022-11-20T00:28:29;6.03;;;2.20;;
6117;SDS011;3089;48.202;11.510;2022-11-20T00:31:00;4.40;;;1.70;;
6117;SDS011;3089;48.202;11.510;2022-11-20T00:33:29;4.30;;;1.97;;
6117;SDS011;3089;48.202;11.510;2022-11-20T00:36:00;5.07;;;1.70;;
6117;SDS011;3089;48.202;11.510;2022-11-20T00:38:29;5.10;;;2.30;;
6117;SDS011;3089;48.202;11.510;2022-11-20T00:40:59;7.07;;;2.93;;
6117;SDS011;3089;48.202;11.510;2022-11-20T00:43:29;10.33;;;3.23;;
6117;SDS011;3089;48.202;11.510;2022-11-20T00:45:57;18.63;;;6.07;;
6117;SDS011;3089;48.202;11.510;2022-11-20T00:48:25;15.07;;;6.67;;
6117;SDS011;3089;48.202;11.510;2022-11-20T00:50:53;10.40;;;4.60;;
6117;SDS011;3089;48.202;11.510;2022-11-20T00:53:21;4.77;;;2.10;;
6117;SDS011;3089;48.202;11.510;2022-11-20T00:55:53;4.37;;;1.90;;
6117;SDS011;3089;48.202;11.510;2022-11-20T00:58:23;4.33;;;2.07;;
6117;SDS011;3089;48.202;11.510;2022-11-20T01:00:52;4.10;;;1.87;;
6117;SDS011;3089;48.202;11.510;2022-11-20T01:03:20;3.80;;;1.63;;
6117;SDS011;3089;48.202;11.510;2022-11-20T01:05:52;4.17;;;1.80;;
6117;SDS011;3089;48.202;11.510;2022-11-20T01:08:20;4.90;;;2.37;;
6117;SDS011;3089;48.202;11.510;2022-11-20T01:10:48;4.00;;;2.17;;
6117;SDS011;3089;48.202;11.510;2022-11-20T01:13:15;5.30;;;2.17;;
6117;SDS011;3089;48.202;11.510;2022-11-20T01:16:03;3.40;;;1.77;;
6117;SDS011;3089;48.202;11.510;2022-11-20T01:18:31;4.40;;;1.97;;
6117;SDS011;3089;48.202;11.510;2022-11-20T01:21:00;4.47;;;1.80;;
6117;SDS011;3089;48.202;11.510;2022-11-20T01:23:30;3.80;;;1.60;;
6117;SDS011;3089;48.202;11.510;2022-11-20T01:25:59;4.20;;;2.00;;
6117;SDS011;3089;48.202;11.510;2022-11-20T01:28:29;3.90;;;2.07;;
6117;SDS011;3089;48.202;11.510;2022-11-20T01:30:57;4.77;;;2.10;;
6117;SDS011;3089;48.202;11.510;2022-11-20T01:33:27;3.63;;;1.80;;
6117;SDS011;3089;48.202;11.510;2022-11-20T01:36:02;4.00;;;1.80;;
6117;SDS011;3089;48.202;11.510;2022-11-20T01:38:32;3.77;;;1.80;;
6117;SDS011;3089;48.202;11.510;2022-11-20T01:41:00;8.47;;;2.67;;
6117;SDS011;3089;48.202;11.510;2022-11-20T01:43:28;6.97;;;2.30;;
6117;SDS011;3089;48.202;11.510;2022-11-20T01:45:59;5.80;;;2.53;;
6117;SDS011;3089;48.202;11.510;2022-11-20T01:48:42;6.63;;;2.20;;
6117;SDS011;3089;48.202;11.510;2022-11-20T01:51:19;3.73;;;1.73;;
6117;SDS011;3089;48.202;11.510;2022-11-20T01:53:52;4.17;;;1.80;;
6117;SDS011;3089;48.202;11.510;2022-11-20T01:56:22;3.83;;;1.60;;
6117;SDS011;3089;48.202;11.510;2022-11-20T01:58:53;4.07;;;1.90;;
6117;SDS011;3089;48.202;11.510;2022-11-20T02:01:23;3.83;;;1.83;;
6117;SDS011;3089;48.202;11.510;2022-11-20T02:03:52;5.87;;;1.70;;
6117;SDS011;3089;48.202;11.510;2022-11-20T02:06:22;4.60;;;2.07;;
6117;SDS011;3089;48.202;11.510;2022-11-20T02:08:52;4.20;;;2.20;;
6117;SDS011;3089;48.202;11.510;2022-11-20T02:11:21;4.70;;;1.87;;
6117;SDS011;3089;48.202;11.510;2022-11-20T02:13:49;3.80;;;1.53;;
6117;SDS011;3089;48.202;11.510;2022-11-20T02:16:19;4.07;;;1.80;;
6117;SDS011;3089;48.202;11.510;2022-11-20T02:18:50;4.73;;;2.30;;
6117;SDS011;3089;48.202;11.510;2022-11-20T02:21:27;4.90;;;2.13;;
6117;SDS011;3089;48.202;11.510;2022-11-20T02:24:01;4.57;;;2.10;;
6117;SDS011;3089;48.202;11.510;2022-11-20T02:26:41;4.20;;;2.37;;
6117;SDS011;3089;48.202;11.510;2022-11-20T02:29:13;5.33;;;2.40;;
6117;SDS011;3089;48.202;11.510;2022-11-20T02:31:45;4.03;;;1.80;;
6117;SDS011;3089;48.202;11.510;2022-11-20T02:34:14;5.53;;;2.30;;
6117;SDS011;3089;48.202;11.510;2022-11-20T02:36:42;5.23;;;1.60;;
6117;SDS011;3089;48.202;11.510;2022-11-20T02:39:12;4.73;;;2.23;;
6117;SDS011;3089;48.202;11.510;2022-11-20T02:41:43;4.00;;;1.63;;
6117;SDS011;3089;48.202;11.510;2022-11-20T02:44:11;5.57;;;1.93;;
6117;SDS011;3089;48.202;11.510;2022-11-20T02:46:39;5.17;;;2.00;;
6117;SDS011;3089;48.202;11.510;2022-11-20T02:49:07;4.50;;;2.23;;
6117;SDS011;3089;48.202;11.510;2022-11-20T02:51:34;5.47;;;2.00;;
6117;SDS011;3089;48.202;11.510;2022-11-20T02:54:02;4.97;;;2.30;;
6117;SDS011;3089;48.202;11.510;2022-11-20T02:56:31;3.87;;;1.83;;
6117;SDS011;3089;48.202;11.510;2022-11-20T02:58:59;3.30;;;1.77;;
6117;SDS011;3089;48.202;11.510;2022-11-20T03:01:27;4.40;;;1.70;;
6117;SDS011;3089;48.202;11.510;2022-11-20T03:03:55;5.50;;;1.80;;
6117;SDS011;3089;48.202;11.510;2022-11-20T03:06:23;5.87;;;2.40;;
6117;SDS011;3089;48.202;11.510;2022-11-20T03:08:51;4.10;;;2.10;;
6117;SDS011;3089;48.202;11.510;2022-11-20T03:11:19;5.00;;;1.93;;
6117;SDS011;3089;48.202;11.510;2022-11-20T03:13:48;5.20;;;2.20;;
6117;SDS011;3089;48.202;11.510;2022-11-20T03:16:17;3.60;;;1.90;;
6117;SDS011;3089;48.202;11.510;2022-11-20T03:18:47;6.57;;;2.33;;
6117;SDS011;3089;48.202;11.510;2022-11-20T03:21:15;3.97;;;1.83;;
6117;SDS011;3089;48.202;11.510;2022-11-20T03:23:43;3.90;;;1.67;;
6117;SDS011;3089;48.202;11.510;2022-11-20T03:26:13;3.80;;;1.70;;
6117;SDS011;3089;48.202;11.510;2022-11-20T03:28:45;5.67;;;2.00;;
6117;SDS011;3089;48.202;11.510;2022-11-20T03:31:16;3.87;;;2.43;;
6117;SDS011;3089;48.202;11.510;2022-11-20T03:33:45;4.77;;;1.63;;
6117;SDS011;3089;48.202;11.510;2022-11-20T03:36:14;4.50;;;1.80;;
6117;SDS011;3089;48.202;11.510;2022-11-20T03:38:43;3.90;;;1.77;;
6117;SDS011;3089;48.202;11.510;2022-11-20T03:41:12;8.87;;;2.13;;
6117;SDS011;3089;48.202;11.510;2022-11-20T03:43:41;4.20;;;1.90;;
6117;SDS011;3089;48.202;11.510;2022-11-20T03:46:09;4.40;;;2.07;;
6117;SDS011;3089;48.202;11.510;2022-11-20T03:48:38;3.73;;;1.57;;
6117;SDS011;3089;48.202;11.510;2022-11-20T03:51:06;5.23;;;1.93;;
6117;SDS011;3089;48.202;11.510;2022-11-20T03:53:35;3.87;;;1.80;;
6117;SDS011;3089;48.202;11.510;2022-11-20T03:56:03;3.50;;;1.40;;
6117;SDS011;3089;48.202;11.510;2022-11-20T03:58:32;5.23;;;2.30;;
6117;SDS011;3089;48.202;11.510;2022-11-20T04:01:04;4.37;;;2.33;;
6117;SDS011;3089;48.202;11.510;2022-11-20T04:03:33;4.40;;;1.90;;
6117;SDS011;3089;48.202;11.510;2022-11-20T04:06:04;3.33;;;1.70;;
6117;SDS011;3089;48.202;11.510;2022-11-20T04:08:32;5.07;;;2.00;;
6117;SDS011;3089;48.202;11.510;2022-11-20T04:11:10;6.90;;;1.90;;
6117;SDS011;3089;48.202;11.510;2022-11-20T04:13:39;4.63;;;2.07;;
6117;SDS011;3089;48.202;11.510;2022-11-20T04:16:08;4.10;;;1.53;;
6117;SDS011;3089;48.202;11.510;2022-11-20T04:18:36;4.67;;;1.80;;
6117;SDS011;3089;48.202;11.510;2022-11-20T04:21:06;4.10;;;1.77;;
6117;SDS011;3089;48.202;11.510;2022-11-20T04:23:34;4.17;;;1.80;;
6117;SDS011;3089;48.202;11.510;2022-11-20T04:26:02;2.93;;;1.37;;
6117;SDS011;3089;48.202;11.510;2022-11-20T04:28:31;4.47;;;1.73;;
6117;SDS011;3089;48.202;11.510;2022-11-20T04:31:02;3.97;;;2.03;;
6117;SDS011;3089;48.202;11.510;2022-11-20T04:33:31;4.77;;;2.00;;
6117;SDS011;3089;48.202;11.510;2022-11-20T04:36:00;7.30;;;2.20;;
6117;SDS011;3089;48.202;11.510;2022-11-20T04:38:30;3.90;;;1.67;;
6117;SDS011;3089;48.202;11.510;2022-11-20T04:40:58;3.37;;;1.73;;
6117;SDS011;3089;48.202;11.510;2022-11-20T04:43:27;4.13;;;2.00;;
6117;SDS011;3089;48.202;11.510;2022-11-20T04:45:56;4.70;;;2.27;;
6117;SDS011;3089;48.202;11.510;2022-11-20T04:48:25;3.80;;;1.53;;
6117;SDS011;3089;48.202;11.510;2022-11-20T04:50:53;3.60;;;1.53;;
6117;SDS011;3089;48.202;11.510;2022-11-20T04:53:21;3.40;;;1.67;;
6117;SDS011;3089;48.202;11.510;2022-11-20T04:55:51;5.80;;;2.03;;
6117;SDS011;3089;48.202;11.510;2022-11-20T04:58:25;3.47;;;1.83;;
6117;SDS011;3089;48.202;11.510;2022-11-20T05:00:53;3.10;;;1.50;;
6117;SDS011;3089;48.202;11.510;2022-11-20T05:03:27;3.90;;;2.00;;
6117;SDS011;3089;48.202;11.510;2022-11-20T05:05:55;5.20;;;1.87;;
6117;SDS011;3089;48.202;11.510;2022-11-20T05:08:23;4.33;;;2.00;;
6117;SDS011;3089;48.202;11.510;2022-11-20T05:10:52;3.43;;;1.73;;
6117;SDS011;3089;48.202;11.510;2022-11-20T05:13:20;4.33;;;1.90;;
6117;SDS011;3089;48.202;11.510;2022-11-20T05:15:48;3.30;;;1.80;;
6117;SDS011;3089;48.202;11.510;2022-11-20T05:18:16;4.50;;;1.63;;
6117;SDS011;3089;48.202;11.510;2022-11-20T05:20:43;7.13;;;2.63;;
6117;SDS011;3089;48.202;11.510;2022-11-20T05:23:11;4.47;;;1.70;;
6117;SDS011;3089;48.202;11.510;2022-11-20T05:25:39;3.73;;;1.80;;
6117;SDS011;3089;48.202;11.510;2022-11-20T05:28:08;3.93;;;1.70;;
6117;SDS011;3089;48.202;11.510;2022-11-20T05:30:36;4.17;;;1.70;;
6117;SDS011;3089;48.202;11.510;2022-11-20T05:33:04;4.67;;;2.37;;
6117;SDS011;3089;48.202;11.510;2022-11-20T05:35:31;4.00;;;2.17;;
6117;SDS011;3089;48.202;11.510;2022-11-20T05:37:59;3.60;;;1.70;;
6117;SDS011;3089;48.202;11.510;2022-11-20T05:40:27;3.90;;;1.87;;
6117;SDS011;3089;48.202;11.510;2022-11-20T05:42:55;2.97;;;1.47;;
6117;SDS011;3089;48.202;11.510;2022-11-20T05:45:24;3.70;;;1.47;;
6117;SDS011;3089;48.202;11.510;2022-11-20T05:47:52;3.40;;;1.37;;
6117;SDS011;3089;48.202;11.510;2022-11-20T05:50:19;3.33;;;1.63;;
6117;SDS011;3089;48.202;11.510;2022-11-20T05:52:47;3.83;;;1.87;;
6117;SDS011;3089;48.202;11.510;2022-11-20T05:55:15;4.47;;;1.67;;
6117;SDS011;3089;48.202;11.510;2022-11-20T05:57:43;4.10;;;1.73;;
6117;SDS011;3089;48.202;11.510;2022-11-20T06:00:11;3.70;;;1.77;;
6117;SDS011;3089;48.202;11.510;2022-11-20T06:02:41;3.93;;;1.87;;
6117;SDS011;3089;48.202;11.510;2022-11-20T06:05:09;3.20;;;1.50;;
6117;SDS011;3089;48.202;11.510;2022-11-20T06:07:37;3.23;;;1.30;;
6117;SDS011;3089;48.202;11.510;2022-11-20T06:10:06;4.93;;;1.80;;
6117;SDS011;3089;48.202;11.510;2022-11-20T06:12:34;3.80;;;1.77;;
6117;SDS011;3089;48.202;11.510;2022-11-20T06:15:02;3.30;;;1.60;;
6117;SDS011;3089;48.202;11.510;2022-11-20T06:17:31;3.50;;;1.63;;
6117;SDS011;3089;48.202;11.510;2022-11-20T06:20:00;4.77;;;1.83;;
6117;SDS011;3089;48.202;11.510;2022-11-20T06:22:28;3.80;;;1.70;;
6117;SDS011;3089;48.202;11.510;2022-11-20T06:24:56;3.80;;;1.60;;
6117;SDS011;3089;48.202;11.510;2022-11-20T06:27:23;4.73;;;2.13;;
6117;SDS011;3089;48.202;11.510;2022-11-20T06:29:51;4.27;;;1.70;;
6117;SDS011;3089;48.202;11.510;2022-11-20T06:32:19;4.90;;;1.83;;
6117;SDS011;3089;48.202;11.510;2022-11-20T06:34:47;3.87;;;1.83;;
6117;SDS011;3089;48.202;11.510;2022-11-20T06:37:16;4.83;;;1.80;;
6117;SDS011;3089;48.202;11.510;2022-11-20T06:39:43;5.53;;;1.77;;
6117;SDS011;3089;48.202;11.510;2022-11-20T06:42:11;3.50;;;1.57;;
6117;SDS011;3089;48.202;11.510;2022-11-20T06:44:39;3.20;;;1.53;;
6117;SDS011;3089;48.202;11.510;2022-11-20T06:47:07;3.63;;;1.77;;
6117;SDS011;3089;48.202;11.510;2022-11-20T06:49:35;3.60;;;1.60;;
6117;SDS011;3089;48.202;11.510;2022-11-20T06:52:04;8.67;;;2.17;;
6117;SDS011;3089;48.202;11.510;2022-11-20T06:54:33;3.53;;;1.70;;
6117;SDS011;3089;48.202;11.510;2022-11-20T06:57:01;3.03;;;1.30;;
6117;SDS011;3089;48.202;11.510;2022-11-20T06:59:29;3.70;;;1.60;;
6117;SDS011;3089;48.202;11.510;2022-11-20T07:01:57;4.40;;;1.80;;
6117;SDS011;3089;48.202;11.510;2022-11-20T07:04:24;3.57;;;1.73;;
6117;SDS011;3089;48.202;11.510;2022-11-20T07:06:52;4.53;;;1.83;;
6117;SDS011;3089;48.202;11.510;2022-11-20T07:09:20;2.97;;;1.33;;
6117;SDS011;3089;48.202;11.510;2022-11-20T07:11:50;2.90;;;1.50;;
6117;SDS011;3089;48.202;11.510;2022-11-20T07:14:17;3.23;;;1.73;;
6117;SDS011;3089;48.202;11.510;2022-11-20T07:16:45;4.00;;;1.63;;
6117;SDS011;3089;48.202;11.510;2022-11-20T07:19:13;4.40;;;1.20;;
6117;SDS011;3089;48.202;11.510;2022-11-20T07:21:41;5.00;;;2.00;;
6117;SDS011;3089;48.202;11.510;2022-11-20T07:24:09;2.40;;;1.00;;
6117;SDS011;3089;48.202;11.510;2022-11-20T07:26:37;3.33;;;1.20;;
6117;SDS011;3089;48.202;11.510;2022-11-20T07:29:07;3.30;;;1.73;;
6117;SDS011;3089;48.202;11.510;2022-11-20T07:31:35;5.10;;;1.70;;
6117;SDS011;3089;48.202;11.510;2022-11-20T07:34:03;3.10;;;1.50;;
6117;SDS011;3089;48.202;11.510;2022-11-20T07:36:31;3.37;;;1.70;;
6117;SDS011;3089;48.202;11.510;2022-11-20T07:38:58;2.77;;;1.27;;
6117;SDS011;3089;48.202;11.510;2022-11-20T07:41:26;3.30;;;1.50;;
6117;SDS011;3089;48.202;11.510;2022-11-20T07:43:55;3.67;;;1.67;;
6117;SDS011;3089;48.202;11.510;2022-11-20T07:46:24;3.50;;;1.30;;
6117;SDS011;3089;48.202;11.510;2022-11-20T07:48:52;3.40;;;1.60;;
6117;SDS011;3089;48.202;11.510;2022-11-20T07:51:20;3.10;;;1.50;;
6117;SDS011;3089;48.202;11.510;2022-11-20T07:53:50;3.50;;;1.70;;
6117;SDS011;3089;48.202;11.510;2022-11-20T07:56:18;5.43;;;1.90;;
6117;SDS011;3089;48.202;11.510;2022-11-20T07:58:45;3.80;;;1.20;;
6117;SDS011;3089;48.202;11.510;2022-11-20T08:01:13;4.60;;;1.97;;
6117;SDS011;3089;48.202;11.510;2022-11-20T08:03:42;4.90;;;1.90;;
6117;SDS011;3089;48.202;11.510;2022-11-20T08:06:10;3.83;;;1.63;;
6117;SDS011;3089;48.202;11.510;2022-11-20T08:08:38;3.60;;;1.73;;
6117;SDS011;3089;48.202;11.510;2022-11-20T08:11:08;4.30;;;2.17;;
6117;SDS011;3089;48.202;11.510;2022-11-20T08:13:50;3.20;;;1.57;;
6117;SDS011;3089;48.202;11.510;2022-11-20T08:16:35;4.50;;;1.73;;
6117;SDS011;3089;48.202;11.510;2022-11-20T08:19:04;3.80;;;1.77;;
6117;SDS011;3089;48.202;11.510;2022-11-20T08:21:32;5.40;;;2.23;;
6117;SDS011;3089;48.202;11.510;2022-11-20T08:24:04;4.20;;;2.20;;
6117;SDS011;3089;48.202;11.510;2022-11-20T08:26:32;3.80;;;1.87;;
6117;SDS011;3089;48.202;11.510;2022-11-20T08:29:00;4.60;;;2.07;;
6117;SDS011;3089;48.202;11.510;2022-11-20T08:31:28;6.70;;;1.97;;
6117;SDS011;3089;48.202;11.510;2022-11-20T08:33:56;3.67;;;1.67;;
6117;SDS011;3089;48.202;11.510;2022-11-20T08:36:25;4.40;;;2.00;;
6117;SDS011;3089;48.202;11.510;2022-11-20T08:38:55;3.57;;;1.40;;
6117;SDS011;3089;48.202;11.510;2022-11-20T08:41:23;2.90;;;1.50;;
6117;SDS011;3089;48.202;11.510;2022-11-20T08:43:52;5.43;;;2.10;;
6117;SDS011;3089;48.202;11.510;2022-11-20T08:46:21;4.00;;;1.67;;
6117;SDS011;3089;48.202;11.510;2022-11-20T08:48:49;3.20;;;1.50;;
6117;SDS011;3089;48.202;11.510;2022-11-20T08:51:17;3.27;;;1.57;;
6117;SDS011;3089;48.202;11.510;2022-11-20T08:53:47;3.23;;;1.63;;
6117;SDS011;3089;48.202;11.510;2022-11-20T08:56:15;4.77;;;1.90;;
6117;SDS011;3089;48.202;11.510;2022-11-20T08:58:43;3.60;;;1.60;;
6117;SDS011;3089;48.202;11.510;2022-11-20T09:01:31;4.90;;;1.60;;
6117;SDS011;3089;48.202;11.510;2022-11-20T09:03:59;4.90;;;1.70;;
6117;SDS011;3089;48.202;11.510;2022-11-20T09:06:27;4.90;;;1.40;;
6117;SDS011;3089;48.202;11.510;2022-11-20T09:08:56;3.83;;;1.33;;
6117;SDS011;3089;48.202;11.510;2022-11-20T09:11:31;7.90;;;1.90;;
6117;SDS011;3089;48.202;11.510;2022-11-20T09:13:59;4.33;;;1.57;;
6117;SDS011;3089;48.202;11.510;2022-11-20T09:16:28;2.93;;;1.30;;
6117;SDS011;3089;48.202;11.510;2022-11-20T09:18:56;3.37;;;1.80;;
6117;SDS011;3089;48.202;11.510;2022-11-20T09:21:44;3.60;;;1.40;;
6117;SDS011;3089;48.202;11.510;2022-11-20T09:24:14;2.80;;;1.13;;
6117;SDS011;3089;48.202;11.510;2022-11-20T09:26:42;2.70;;;0.97;;
6117;SDS011;3089;48.202;11.510;2022-11-20T09:29:10;3.30;;;1.50;;
6117;SDS011;3089;48.202;11.510;2022-11-20T09:31:37;3.13;;;1.27;;
6117;SDS011;3089;48.202;11.510;2022-11-20T09:34:05;7.40;;;1.93;;
6117;SDS011;3089;48.202;11.510;2022-11-20T09:36:33;2.50;;;0.90;;
6117;SDS011;3089;48.202;11.510;2022-11-20T09:39:01;3.73;;;1.60;;
6117;SDS011;3089;48.202;11.510;2022-11-20T09:41:38;2.70;;;1.20;;
6117;SDS011;3089;48.202;11.510;2022-11-20T09:44:27;3.07;;;1.37;;
6117;SDS011;3089;48.202;11.510;2022-11-20T09:47:11;3.67;;;1.60;;
6117;SDS011;3089;48.202;11.510;2022-11-20T09:49:51;4.63;;;1.17;;
6117;SDS011;3089;48.202;11.510;2022-11-20T09:52:28;4.90;;;1.87;;
6117;SDS011;3089;48.202;11.510;2022-11-20T09:55:02;3.83;;;1.70;;
6117;SDS011;3089;48.202;11.510;2022-11-20T09:57:37;5.50;;;1.83;;
6117;SDS011;3089;48.202;11.510;2022-11-20T10:00:10;2.57;;;1.00;;
6117;SDS011;3089;48.202;11.510;2022-11-20T10:02:41;2.80;;;1.00;;
6117;SDS011;3089;48.202;11.510;2022-11-20T10:05:15;2.00;;;0.70;;
6117;SDS011;3089;48.202;11.510;2022-11-20T10:07:47;3.47;;;1.30;;
6117;SDS011;3089;48.202;11.510;2022-11-20T10:10:24;2.83;;;1.47;;
6117;SDS011;3089;48.202;11.510;2022-11-20T10:13:09;3.60;;;1.70;;
6117;SDS011;3089;48.202;11.510;2022-11-20T10:15:52;3.10;;;1.20;;
6117;SDS011;3089;48.202;11.510;2022-11-20T10:18:33;2.97;;;0.90;;
6117;SDS011;3089;48.202;11.510;2022-11-20T10:21:11;7.47;;;1.70;;
6117;SDS011;3089;48.202;11.510;2022-11-20T10:23:51;3.03;;;1.20;;
6117;SDS011;3089;48.202;11.510;2022-11-20T10:26:40;2.50;;;0.90;;
6117;SDS011;3089;48.202;11.510;2022-11-20T10:29:21;2.77;;;1.10;;
6117;SDS011;3089;48.202;11.510;2022-11-20T10:31:57;6.87;;;0.87;;
6117;SDS011;3089;48.202;11.510;2022-11-20T10:34:30;4.47;;;1.43;;
6117;SDS011;3089;48.202;11.510;2022-11-20T10:37:02;3.27;;;1.20;;
6117;SDS011;3089;48.202;11.510;2022-11-20T10:39:38;3.70;;;1.27;;
6117;SDS011;3089;48.202;11.510;2022-11-20T10:42:10;3.17;;;1.10;;
6117;SDS011;3089;48.202;11.510;2022-11-20T10:44:43;2.90;;;1.20;;
6117;SDS011;3089;48.202;11.510;2022-11-20T10:47:33;3.40;;;1.20;;
6117;SDS011;3089;48.202;11.510;2022-11-20T10:50:02;3.13;;;0.70;;
6117;SDS011;3089;48.202;11.510;2022-11-20T10:52:34;2.53;;;1.00;;
6117;SDS011;3089;48.202;11.510;2022-11-20T10:55:11;2.67;;;0.97;;
6117;SDS011;3089;48.202;11.510;2022-11-20T10:57:53;2.90;;;0.83;;
6117;SDS011;3089;48.202;11.510;2022-11-20T11:00:30;2.90;;;1.10;;
6117;SDS011;3089;48.202;11.510;2022-11-20T11:02:58;2.70;;;0.90;;
6117;SDS011;3089;48.202;11.510;2022-11-20T11:05:36;2.57;;;1.13;;
6117;SDS011;3089;48.202;11.510;2022-11-20T11:08:09;5.77;;;1.20;;
6117;SDS011;3089;48.202;11.510;2022-11-20T11:10:41;4.07;;;1.30;;
6117;SDS011;3089;48.202;11.510;2022-11-20T11:13:19;2.90;;;1.00;;
6117;SDS011;3089;48.202;11.510;2022-11-20T11:15:49;3.67;;;1.37;;
6117;SDS011;3089;48.202;11.510;2022-11-20T11:18:24;3.47;;;0.93;;
6117;SDS011;3089;48.202;11.510;2022-11-20T11:20:54;2.90;;;1.23;;
6117;SDS011;3089;48.202;11.510;2022-11-20T11:23:28;3.60;;;1.33;;
6117;SDS011;3089;48.202;11.510;2022-11-20T11:25:58;3.43;;;1.23;;
6117;SDS011;3089;48.202;11.510;2022-11-20T11:28:27;2.30;;;0.83;;
6117;SDS011;3089;48.202;11.510;2022-11-20T11:30:57;4.93;;;1.23;;
6117;SDS011;3089;48.202;11.510;2022-11-20T11:33:25;2.73;;;1.03;;
6117;SDS011;3089;48.202;11.510;2022-11-20T11:35:55;2.37;;;1.00;;
6117;SDS011;3089;48.202;11.510;2022-11-20T11:38:27;2.20;;;0.80;;
6117;SDS011;3089;48.202;11.510;2022-11-20T11:40:57;2.40;;;0.90;;
6117;SDS011;3089;48.202;11.510;2022-11-20T11:43:26;3.37;;;0.90;;
6117;SDS011;3089;48.202;11.510;2022-11-20T11:46:27;2.47;;;0.93;;
6117;SDS011;3089;48.202;11.510;2022-11-20T11:48:57;2.83;;;1.03;;
6117;SDS011;3089;48.202;11.510;2022-11-20T11:51:28;2.30;;;0.70;;
6117;SDS011;3089;48.202;11.510;2022-11-20T11:54:02;2.63;;;1.03;;
6117;SDS011;3089;48.202;11.510;2022-11-20T11:56:38;2.70;;;0.93;;
6117;SDS011;3089;48.202;11.510;2022-11-20T11:59:06;3.73;;;1.13;;
6117;SDS011;3089;48.202;11.510;2022-11-20T12:01:43;3.27;;;0.70;;
6117;SDS011;3089;48.202;11.510;2022-11-20T12:04:16;3.00;;;1.10;;
6117;SDS011;3089;48.202;11.510;2022-11-20T12:06:51;2.10;;;0.80;;
6117;SDS011;3089;48.202;11.510;2022-11-20T12:09:48;2.10;;;0.70;;
6117;SDS011;3089;48.202;11.510;2022-11-20T12:12:20;4.53;;;0.90;;
6117;SDS011;3089;48.202;11.510;2022-11-20T12:14:52;2.77;;;0.93;;
6117;SDS011;3089;48.202;11.510;2022-11-20T12:17:23;2.73;;;0.80;;
6117;SDS011;3089;48.202;11.510;2022-11-20T12:19:51;3.03;;;0.97;;
6117;SDS011;3089;48.202;11.510;2022-11-20T12:22:22;5.30;;;0.90;;
6117;SDS011;3089;48.202;11.510;2022-11-20T12:24:58;2.10;;;0.80;;
6117;SDS011;3089;48.202;11.510;2022-11-20T12:27:43;5.40;;;1.33;;
6117;SDS011;3089;48.202;11.510;2022-11-20T12:30:20;2.60;;;1.00;;
6117;SDS011;3089;48.202;11.510;2022-11-20T12:36:02;2.63;;;0.80;;
6117;SDS011;3089;48.202;11.510;2022-11-20T12:38:52;3.13;;;1.10;;
6117;SDS011;3089;48.202;11.510;2022-11-20T12:41:34;2.10;;;0.80;;
6117;SDS011;3089;48.202;11.510;2022-11-20T12:44:33;2.17;;;0.80;;
6117;SDS011;3089;48.202;11.510;2022-11-20T12:47:31;2.33;;;0.80;;
6117;SDS011;3089;48.202;11.510;2022-11-20T12:50:20;2.20;;;0.70;;
6117;SDS011;3089;48.202;11.510;2022-11-20T12:52:56;2.20;;;0.80;;
6117;SDS011;3089;48.202;11.510;2022-11-20T12:55:31;3.00;;;1.00;;
6117;SDS011;3089;48.202;11.510;2022-11-20T12:58:08;2.60;;;0.93;;
6117;SDS011;3089;48.202;11.510;2022-11-20T13:00:43;2.73;;;1.20;;
6117;SDS011;3089;48.202;11.510;2022-11-20T13:06:13;2.40;;;0.90;;
6117;SDS011;3089;48.202;11.510;2022-11-20T13:08:45;9.43;;;2.40;;
6117;SDS011;3089;48.202;11.510;2022-11-20T13:11:21;3.43;;;1.53;;
6117;SDS011;3089;48.202;11.510;2022-11-20T13:14:01;2.70;;;1.20;;
6117;SDS011;3089;48.202;11.510;2022-11-20T13:16:45;3.50;;;1.20;;
6117;SDS011;3089;48.202;11.510;2022-11-20T13:19:17;4.15;;;1.20;;
6117;SDS011;3089;48.202;11.510;2022-11-20T13:21:47;4.13;;;1.20;;
6117;SDS011;3089;48.202;11.510;2022-11-20T13:24:21;2.40;;;0.80;;
6117;SDS011;3089;48.202;11.510;2022-11-20T13:30:10;3.97;;;1.20;;
6117;SDS011;3089;48.202;11.510;2022-11-20T13:32:50;2.40;;;1.00;;
6117;SDS011;3089;48.202;11.510;2022-11-20T13:35:24;1.97;;;0.67;;
6117;SDS011;3089;48.202;11.510;2022-11-20T13:38:02;2.70;;;1.00;;
6117;SDS011;3089;48.202;11.510;2022-11-20T13:40:33;3.87;;;1.50;;
6117;SDS011;3089;48.202;11.510;2022-11-20T13:45:54;2.63;;;1.00;;
6117;SDS011;3089;48.202;11.510;2022-11-20T13:48:26;2.27;;;0.83;;
6117;SDS011;3089;48.202;11.510;2022-11-20T13:51:07;4.60;;;1.53;;
6117;SDS011;3089;48.202;11.510;2022-11-20T13:53:53;4.20;;;1.13;;
6117;SDS011;3089;48.202;11.510;2022-11-20T13:56:41;2.97;;;1.00;;
6117;SDS011;3089;48.202;11.510;2022-11-20T13:59:24;2.73;;;1.30;;
6117;SDS011;3089;48.202;11.510;2022-11-20T14:02:10;3.03;;;1.17;;
6117;SDS011;3089;48.202;11.510;2022-11-20T14:04:41;4.00;;;1.23;;
6117;SDS011;3089;48.202;11.510;2022-11-20T14:07:12;3.47;;;1.30;;
6117;SDS011;3089;48.202;11.510;2022-11-20T14:09:48;3.60;;;1.40;;
6117;SDS011;3089;48.202;11.510;2022-11-20T14:12:19;2.70;;;1.13;;
6117;SDS011;3089;48.202;11.510;2022-11-20T14:14:49;3.03;;;1.20;;
6117;SDS011;3089;48.202;11.510;2022-11-20T14:17:20;2.37;;;1.03;;
6117;SDS011;3089;48.202;11.510;2022-11-20T14:19:51;5.40;;;1.23;;
6117;SDS011;3089;48.202;11.510;2022-11-20T14:22:21;3.80;;;1.70;;
6117;SDS011;3089;48.202;11.510;2022-11-20T14:25:02;3.00;;;1.27;;
6117;SDS011;3089;48.202;11.510;2022-11-20T14:27:33;3.80;;;1.20;;
6117;SDS011;3089;48.202;11.510;2022-11-20T14:30:04;3.40;;;1.17;;
6117;SDS011;3089;48.202;11.510;2022-11-20T14:32:33;4.00;;;1.73;;
6117;SDS011;3089;48.202;11.510;2022-11-20T14:35:06;9.93;;;1.73;;
6117;SDS011;3089;48.202;11.510;2022-11-20T14:37:37;8.60;;;2.43;;
6117;SDS011;3089;48.202;11.510;2022-11-20T14:42:58;3.07;;;1.10;;
6117;SDS011;3089;48.202;11.510;2022-11-20T14:45:26;3.33;;;0.83;;
6117;SDS011;3089;48.202;11.510;2022-11-20T14:47:55;2.80;;;1.10;;
6117;SDS011;3089;48.202;11.510;2022-11-20T14:50:25;2.80;;;0.97;;
6117;SDS011;3089;48.202;11.510;2022-11-20T14:52:54;2.70;;;1.10;;
6117;SDS011;3089;48.202;11.510;2022-11-20T14:55:31;2.90;;;1.40;;
6117;SDS011;3089;48.202;11.510;2022-11-20T14:58:01;2.63;;;1.00;;
6117;SDS011;3089;48.202;11.510;2022-11-20T15:00:31;3.00;;;1.30;;
6117;SDS011;3089;48.202;11.510;2022-11-20T15:03:00;2.43;;;0.80;;
6117;SDS011;3089;48.202;11.510;2022-11-20T15:05:43;2.07;;;0.70;;
6117;SDS011;3089;48.202;11.510;2022-11-20T15:08:13;3.47;;;0.97;;
6117;SDS011;3089;48.202;11.510;2022-11-20T15:10:46;2.20;;;0.80;;
6117;SDS011;3089;48.202;11.510;2022-11-20T15:13:16;2.20;;;0.70;;
6117;SDS011;3089;48.202;11.510;2022-11-20T15:15:51;2.90;;;0.90;;
6117;SDS011;3089;48.202;11.510;2022-11-20T15:18:22;3.17;;;1.10;;
6117;SDS011;3089;48.202;11.510;2022-11-20T15:20:53;2.33;;;0.80;;
6117;SDS011;3089;48.202;11.510;2022-11-20T15:23:23;4.30;;;1.50;;
6117;SDS011;3089;48.202;11.510;2022-11-20T15:25:52;3.40;;;1.00;;
6117;SDS011;3089;48.202;11.510;2022-11-20T15:28:21;4.70;;;2.30;;
6117;SDS011;3089;48.202;11.510;2022-11-20T15:30:54;4.20;;;1.60;;
6117;SDS011;3089;48.202;11.510;2022-11-20T15:33:23;4.40;;;2.07;;
6117;SDS011;3089;48.202;11.510;2022-11-20T15:35:51;4.47;;;2.20;;
6117;SDS011;3089;48.202;11.510;2022-11-20T15:38:18;3.13;;;1.00;;
6117;SDS011;3089;48.202;11.510;2022-11-20T15:40:46;7.80;;;1.60;;